KHBG/HBG METAR and TAF weather

Enter ICAO airport designator
Station Type Date Time Source
KHBG METAR 2019/09/20 08:53 UTC NOAA

KHBG 200853Z AUTO 11003KT 10SM FEW004 22/21 A3009 RMK AO2 SLP185 T02170206 51001


Station Type Date Time Source
KHBG Decoded METAR 2019/09/20 08:53 UTC NOAA

HATTIESBURG CHAIN MUNICIPAL, MS, United States (KHBG) 31-16N 89-15W 44M
Sep 20, 2019 - 04:53 AM EDT / 2019.09.20 0853 UTC
Wind: from the ESE (110 degrees) at 3 MPH (3 KT):0
Visibility: 10 mile(s):0
Sky conditions: mostly clear
Temperature: 71.1 F (21.7 C)
Dew Point: 69.1 F (20.6 C)
Relative Humidity: 93%
Pressure (altimeter): 30.09 in. Hg (1018 hPa)
Pressure tendency: 0.00 inches (0.1 hPa) higher than three hours ago
ob: KHBG 200853Z AUTO 11003KT 10SM FEW004 22/21 A3009 RMK AO2 SLP185 T02170206 51001
cycle: 9

Station Type Date Time Source
KHBG TAF 2019/09/20 06:54 UTC NOAA

TAF KHBG 200552Z 2006/2106 12003KT P6SM SCT100
FM200900 12005KT P6SM SCT015 BKN025
FM201600 11009KT P6SM SCT025 BKN050

Example: see airport list